»·PEaware :: N167SB KRNO-KBOI

N167SB :: KRNO-KBOI

FLIGHT INFORMATION

Flight Status: Arrived
Operator: Privately registered:
United States
More flights under this callsign
Pilot: Dean S. (16265)
Aircraft: Unknown
(K350)
More flights by this aircraft type
Origin: KRNO Reno/Tahoe Intl
United States
Destination: KBOI Boise Air Terminal/Gowen
United States
More flights between these airports :: More routes between these airports
Route: LLC REO
File this flight plan on PilotEdge
Remarks:
Altitude:
(Current/Filed)
17,500ft
Speed:
(Current/Filed)
280kts
Departed: 05-May-20 05:42 PM
Arrived: 05-May-20 07:00 PM
Distance/Time
Traveled:
291nm/1:17
Distance/Time
To Go:
Arrived

Flight Plot

Page will automatically refresh every two minutes.


Map Options




Map Legend


Flown Route
Filed Route
Departure Airport
Arrival Airport
Navaid (VOR, NDB)
Fix

Horizontal Profiles

Position Reports

Time Latitude Longitude Heading Altitude Ground
Speed
05-May-20 17:29 39.500943 -119.772896 351 4420ft 0kts
05-May-20 17:30 39.500942 -119.772895 351 4420ft 0kts
05-May-20 17:31 39.500945 -119.772896 351 4420ft 0kts
05-May-20 17:32 39.500947 -119.772897 351 4420ft 0kts
05-May-20 17:33 39.500950 -119.772897 351 4420ft 0kts
05-May-20 17:34 39.500952 -119.772898 351 4420ft 0kts
05-May-20 17:35 39.500955 -119.772898 351 4420ft 0kts
05-May-20 17:36 39.501340 -119.771649 37 4420ft 15kts
05-May-20 17:37 39.507450 -119.771518 357 4420ft 27kts
05-May-20 17:38 39.513668 -119.771154 86 4420ft 13kts
05-May-20 17:39 39.513663 -119.770281 93 4420ft 0kts
05-May-20 17:40 39.511435 -119.769164 177 4420ft 18kts
05-May-20 17:41 39.481598 -119.769334 176 5054ft 177kts
05-May-20 17:42 39.446116 -119.725864 92 6280ft 202kts
05-May-20 17:43 39.476087 -119.667242 40 8054ft 193kts
05-May-20 17:44 39.520028 -119.623069 36 9531ft 205kts
05-May-20 17:45 39.569469 -119.581187 31 10920ft 218kts
05-May-20 17:46 39.616458 -119.531327 51 12239ft 226kts
05-May-20 17:47 39.656473 -119.469838 51 13617ft 227kts
05-May-20 17:48 39.693211 -119.401832 54 14866ft 228kts
05-May-20 17:49 39.730560 -119.332786 55 15945ft 234kts
05-May-20 17:50 39.768402 -119.262496 55 17067ft 239kts
05-May-20 17:51 39.808309 -119.188298 55 17329ft 265kts
05-May-20 17:52 39.852142 -119.106784 55 17385ft 285kts
05-May-20 17:53 39.898453 -119.020625 55 17384ft 293kts
05-May-20 17:54 39.944090 -118.931828 57 17384ft 296kts
05-May-20 17:55 39.988178 -118.840425 58 17384ft 297kts
05-May-20 17:56 40.033042 -118.750286 54 17384ft 297kts
05-May-20 17:57 40.080336 -118.661733 55 17384ft 297kts
05-May-20 17:58 40.133210 -118.579089 38 17384ft 297kts
05-May-20 17:59 40.210469 -118.546134 8 17384ft 297kts
05-May-20 18:00 40.292187 -118.527555 12 17384ft 297kts
05-May-20 18:01 40.373296 -118.506112 10 17384ft 297kts
05-May-20 18:02 40.454549 -118.485480 11 17384ft 297kts
05-May-20 18:03 40.535490 -118.462920 12 17384ft 297kts
05-May-20 18:04 40.616363 -118.440282 12 17384ft 297kts
05-May-20 18:05 40.697285 -118.417583 12 17384ft 297kts
05-May-20 18:06 40.777878 -118.394928 12 17384ft 297kts
05-May-20 18:07 40.859198 -118.372022 12 17384ft 297kts
05-May-20 18:08 40.940321 -118.349124 12 17384ft 297kts
05-May-20 18:09 41.021385 -118.326194 12 17384ft 297kts
05-May-20 18:10 41.102195 -118.303289 12 17384ft 297kts
05-May-20 18:11 41.183227 -118.280269 12 17384ft 297kts
05-May-20 18:12 41.264153 -118.257227 12 17384ft 297kts
05-May-20 18:13 41.345197 -118.234101 12 17384ft 297kts
05-May-20 18:14 41.426303 -118.210905 12 17384ft 297kts
05-May-20 18:15 41.507270 -118.187696 12 17384ft 297kts
05-May-20 18:16 41.588174 -118.164455 12 17384ft 297kts
05-May-20 18:17 41.669187 -118.141130 12 17384ft 297kts
05-May-20 18:18 41.750024 -118.117804 12 17384ft 297kts
05-May-20 18:19 41.831186 -118.094332 12 17384ft 297kts
05-May-20 18:20 41.912135 -118.070869 12 17384ft 297kts
05-May-20 18:21 41.993231 -118.047312 12 17384ft 297kts
05-May-20 18:22 42.074088 -118.023772 12 17384ft 297kts
05-May-20 18:23 42.155166 -118.000114 12 17384ft 297kts
05-May-20 18:24 42.236092 -117.976448 12 17383ft 297kts
05-May-20 18:25 42.317124 -117.952698 12 17384ft 298kts
05-May-20 18:26 42.398068 -117.928921 12 17384ft 298kts
05-May-20 18:27 42.478733 -117.902762 16 17384ft 298kts
05-May-20 18:28 42.559347 -117.877023 11 17384ft 298kts
05-May-20 18:29 42.624502 -117.814003 50 17386ft 297kts
05-May-20 18:30 42.677209 -117.727403 50 17384ft 298kts
05-May-20 18:31 42.730092 -117.640913 50 17383ft 298kts
05-May-20 18:32 42.783914 -117.552885 50 16481ft 304kts
05-May-20 18:33 42.838008 -117.464395 50 15484ft 304kts
05-May-20 18:34 42.892081 -117.375904 50 14482ft 299kts
05-May-20 18:35 42.939245 -117.292987 56 13053ft 254kts
05-May-20 18:36 42.977576 -117.220747 53 11950ft 218kts
05-May-20 18:37 43.010773 -117.153022 60 10724ft 214kts
05-May-20 18:38 43.043921 -117.090462 49 10169ft 190kts
05-May-20 18:39 43.078552 -117.034820 49 9617ft 191kts
05-May-20 18:40 43.111548 -116.977800 51 9098ft 190kts
05-May-20 18:41 43.144796 -116.925215 45 8792ft 185kts
05-May-20 18:42 43.180014 -116.875517 46 8497ft 179kts
05-May-20 18:43 43.212447 -116.836049 37 8148ft 157kts
05-May-20 18:44 43.240897 -116.794750 53 7889ft 143kts
05-May-20 18:45 43.262109 -116.747586 55 7889ft 151kts
05-May-20 18:46 43.287258 -116.698033 58 7800ft 157kts
05-May-20 18:47 43.313618 -116.650426 50 7850ft 156kts
05-May-20 18:48 43.347026 -116.612721 37 7440ft 145kts
05-May-20 18:49 43.379903 -116.577305 37 6228ft 154kts
05-May-20 18:50 43.411709 -116.545177 35 5691ft 139kts
05-May-20 18:51 43.444585 -116.516069 32 5499ft 135kts
05-May-20 18:52 43.480229 -116.487835 34 5238ft 155kts
05-May-20 18:53 43.515164 -116.454843 38 5162ft 150kts
05-May-20 18:55 43.548464 -116.418665 38 4926ft 155kts
05-May-20 18:56 43.581024 -116.380667 40 4436ft 150kts
05-May-20 18:57 43.600790 -116.332935 87 4084ft 136kts
05-May-20 18:58 43.584349 -116.284615 114 3618ft 127kts
05-May-20 18:59 43.571165 -116.246006 114 3021ft 106kts
05-May-20 19:00 43.564408 -116.226198 116 2876ft 20kts
05-May-20 19:01 43.563337 -116.225579 201 2876ft 0kts
05-May-20 19:02 43.561890 -116.224411 179 2876ft 19kts
05-May-20 19:03 43.560809 -116.223839 142 2876ft 0kts
05-May-20 19:04 43.560809 -116.223839 142 2876ft 0kts
05-May-20 19:05 43.560809 -116.223839 142 2876ft 0kts
05-May-20 19:06 43.560809 -116.223839 142 2876ft 0kts

Navigation Log

Ident Type
Flight plan parsing failed, navigation log unavailable